EIN69 EIDW-KLAX
Flight info
| Callsign | EIN69 |
|---|---|
| Flight time | N/A |
| Altitude | 34000 |
| Route | PELIG2J PELIG DCT DOGAL/M081F350 DCT 54N020W 53N030W 52N040W 51N050W DCT ALLRY/N0464F360 N482C MIILS/N0470F380 Q907 SIKBO Q905 HOCKE Q824 FNT J36 DUTYS J16 MCW J148 ONL J114 NARLY/N0472F400 J114 SNY J84 FROGS J100 SAKES Q70 BAWER Q96 PURSE BOGET2 |
| Aircraft | A333/H-SDE3GHIJ2J3J5M1RVWXY/LB2D1 |
Departure
| Time | N/A |
|---|---|
| Airport | Dublin Airport (EIDW) |
Arrival
| Time | 2026-05-01 11:33 |
|---|---|
| Airport | Los Angeles International Airport (KLAX) |
| Time | Latitude | Longitude | Altitude | Speed | Heading |
|---|---|---|---|---|---|
| 2026-05-01 10:42 | 37.12625 | -113.00393 | 34068 ft | 470 kts | 232° |
| 2026-05-01 10:43 | 37.10451 | -113.03454 | 34082 ft | 470 kts | 232° |
| 2026-05-01 10:43 | 37.06096 | -113.09576 | 34100 ft | 470 kts | 232° |
| 2026-05-01 10:44 | 37.01736 | -113.15692 | 34098 ft | 471 kts | 233° |
| 2026-05-01 10:44 | 36.97392 | -113.21773 | 34062 ft | 472 kts | 233° |
| 2026-05-01 10:45 | 36.93026 | -113.27896 | 34028 ft | 471 kts | 233° |
| 2026-05-01 10:45 | 36.88763 | -113.34106 | 33988 ft | 471 kts | 234° |
| 2026-05-01 10:46 | 36.84535 | -113.40361 | 33957 ft | 471 kts | 234° |
| 2026-05-01 10:46 | 36.80307 | -113.46596 | 33964 ft | 471 kts | 235° |
| 2026-05-01 10:47 | 36.76081 | -113.52795 | 33949 ft | 472 kts | 235° |
| 2026-05-01 10:47 | 36.71816 | -113.59026 | 33930 ft | 472 kts | 235° |
| 2026-05-01 10:48 | 36.67550 | -113.65248 | 33900 ft | 472 kts | 235° |
| 2026-05-01 10:48 | 36.63280 | -113.71464 | 33905 ft | 472 kts | 235° |
| 2026-05-01 10:49 | 36.59016 | -113.77667 | 33889 ft | 472 kts | 236° |
| 2026-05-01 10:49 | 36.54768 | -113.83844 | 33887 ft | 472 kts | 236° |
| 2026-05-01 10:50 | 36.50496 | -113.90046 | 33873 ft | 472 kts | 236° |
| 2026-05-01 10:50 | 36.46223 | -113.96236 | 33872 ft | 472 kts | 236° |
| 2026-05-01 10:51 | 36.41940 | -114.02430 | 33859 ft | 472 kts | 236° |
| 2026-05-01 10:51 | 36.37678 | -114.08576 | 33844 ft | 472 kts | 236° |
| 2026-05-01 10:52 | 36.33382 | -114.14756 | 33845 ft | 472 kts | 237° |
| 2026-05-01 10:52 | 36.29083 | -114.20928 | 33842 ft | 472 kts | 237° |
| 2026-05-01 10:53 | 36.24786 | -114.27085 | 33835 ft | 472 kts | 237° |
| 2026-05-01 10:53 | 36.20514 | -114.33197 | 33837 ft | 472 kts | 237° |
| 2026-05-01 10:54 | 36.16212 | -114.39340 | 33803 ft | 472 kts | 237° |
| 2026-05-01 10:54 | 36.11906 | -114.45479 | 33829 ft | 472 kts | 237° |
| 2026-05-01 10:55 | 36.07575 | -114.51594 | 33892 ft | 473 kts | 236° |
| 2026-05-01 10:55 | 36.03213 | -114.57665 | 33616 ft | 472 kts | 236° |
| 2026-05-01 10:55 | 36.01024 | -114.60703 | 33248 ft | 471 kts | 236° |
| 2026-05-01 10:56 | 35.98847 | -114.63723 | 32856 ft | 471 kts | 236° |
| 2026-05-01 10:56 | 35.96668 | -114.66748 | 32491 ft | 471 kts | 236° |
| 2026-05-01 10:56 | 35.94488 | -114.69775 | 32121 ft | 472 kts | 236° |
| 2026-05-01 10:56 | 35.92301 | -114.72809 | 31751 ft | 473 kts | 236° |
| 2026-05-01 10:57 | 35.90142 | -114.75802 | 31387 ft | 474 kts | 236° |
| 2026-05-01 10:57 | 35.87948 | -114.78840 | 31032 ft | 475 kts | 236° |
| 2026-05-01 10:57 | 35.85738 | -114.81901 | 30755 ft | 479 kts | 236° |
| 2026-05-01 10:57 | 35.83519 | -114.84969 | 30500 ft | 481 kts | 235° |
| 2026-05-01 10:58 | 35.81289 | -114.88048 | 30271 ft | 481 kts | 235° |
| 2026-05-01 10:58 | 35.79056 | -114.91125 | 30002 ft | 482 kts | 235° |
| 2026-05-01 10:58 | 35.76824 | -114.94196 | 29613 ft | 480 kts | 235° |
| 2026-05-01 10:58 | 35.74600 | -114.97256 | 29197 ft | 479 kts | 235° |
| 2026-05-01 10:59 | 35.72375 | -115.00315 | 28897 ft | 479 kts | 234° |
| 2026-05-01 10:59 | 35.70154 | -115.03368 | 28624 ft | 478 kts | 234° |
| 2026-05-01 10:59 | 35.67940 | -115.06405 | 28355 ft | 476 kts | 234° |
| 2026-05-01 10:59 | 35.65731 | -115.09434 | 28089 ft | 474 kts | 234° |
| 2026-05-01 11:00 | 35.63533 | -115.12446 | 27817 ft | 473 kts | 234° |
| 2026-05-01 11:00 | 35.61339 | -115.15452 | 27569 ft | 471 kts | 234° |
| 2026-05-01 11:00 | 35.59154 | -115.18441 | 27309 ft | 469 kts | 234° |
| 2026-05-01 11:00 | 35.56971 | -115.21418 | 27060 ft | 468 kts | 234° |
| 2026-05-01 11:01 | 35.54782 | -115.24389 | 26806 ft | 467 kts | 233° |
| 2026-05-01 11:01 | 35.52608 | -115.27336 | 26564 ft | 466 kts | 233° |
| 2026-05-01 11:01 | 35.50462 | -115.30242 | 26319 ft | 464 kts | 233° |
| 2026-05-01 11:01 | 35.48295 | -115.33175 | 26045 ft | 463 kts | 233° |
| 2026-05-01 11:02 | 35.46131 | -115.36102 | 25796 ft | 462 kts | 233° |
| 2026-05-01 11:02 | 35.43975 | -115.39015 | 25572 ft | 461 kts | 233° |
| 2026-05-01 11:02 | 35.41822 | -115.41922 | 25332 ft | 459 kts | 233° |
| 2026-05-01 11:02 | 35.39676 | -115.44815 | 25087 ft | 458 kts | 233° |
| 2026-05-01 11:03 | 35.37534 | -115.47700 | 24823 ft | 457 kts | 233° |
| 2026-05-01 11:03 | 35.35400 | -115.50575 | 24597 ft | 456 kts | 233° |
| 2026-05-01 11:03 | 35.33262 | -115.53452 | 24362 ft | 455 kts | 233° |
| 2026-05-01 11:03 | 35.31136 | -115.56310 | 24127 ft | 453 kts | 233° |
| 2026-05-01 11:04 | 35.29017 | -115.59157 | 23904 ft | 452 kts | 233° |
| 2026-05-01 11:04 | 35.26908 | -115.61986 | 23621 ft | 446 kts | 233° |
| 2026-05-01 11:04 | 35.24840 | -115.64759 | 23182 ft | 436 kts | 234° |
| 2026-05-01 11:04 | 35.23022 | -115.67592 | 22786 ft | 422 kts | 241° |
| 2026-05-01 11:05 | 35.21423 | -115.70576 | 22329 ft | 418 kts | 243° |
| 2026-05-01 11:05 | 35.19886 | -115.73590 | 21810 ft | 416 kts | 243° |
| 2026-05-01 11:05 | 35.18377 | -115.76599 | 21274 ft | 414 kts | 244° |
| 2026-05-01 11:05 | 35.16884 | -115.79598 | 20770 ft | 412 kts | 243° |
| 2026-05-01 11:06 | 35.15399 | -115.82584 | 20295 ft | 410 kts | 243° |
| 2026-05-01 11:06 | 35.13912 | -115.85582 | 19797 ft | 413 kts | 243° |
| 2026-05-01 11:06 | 35.12408 | -115.88619 | 19314 ft | 421 kts | 243° |
| 2026-05-01 11:07 | 35.09381 | -115.94711 | 18688 ft | 421 kts | 242° |
| 2026-05-01 11:07 | 35.07860 | -115.97768 | 18443 ft | 420 kts | 242° |
| 2026-05-01 11:07 | 35.06348 | -116.00803 | 18212 ft | 418 kts | 242° |
| 2026-05-01 11:07 | 35.04839 | -116.03831 | 17945 ft | 417 kts | 242° |
| 2026-05-01 11:08 | 35.03331 | -116.06855 | 17671 ft | 416 kts | 242° |
| 2026-05-01 11:08 | 35.01830 | -116.09862 | 17403 ft | 415 kts | 242° |
| 2026-05-01 11:08 | 34.98835 | -116.15856 | 16878 ft | 412 kts | 242° |
| 2026-05-01 11:09 | 34.97340 | -116.18845 | 16619 ft | 411 kts | 242° |
| 2026-05-01 11:09 | 34.95872 | -116.21776 | 16298 ft | 409 kts | 242° |
| 2026-05-01 11:09 | 34.94374 | -116.24765 | 15928 ft | 407 kts | 242° |
| 2026-05-01 11:10 | 34.91430 | -116.30634 | 15174 ft | 405 kts | 242° |
| 2026-05-01 11:10 | 34.89980 | -116.33522 | 14822 ft | 404 kts | 242° |
| 2026-05-01 11:10 | 34.88506 | -116.36453 | 14466 ft | 404 kts | 242° |
| 2026-05-01 11:10 | 34.87036 | -116.39375 | 14113 ft | 404 kts | 241° |
| 2026-05-01 11:11 | 34.85564 | -116.42300 | 13771 ft | 403 kts | 241° |
| 2026-05-01 11:11 | 34.84097 | -116.45209 | 13394 ft | 403 kts | 241° |
| 2026-05-01 11:11 | 34.82634 | -116.48109 | 13003 ft | 401 kts | 241° |
| 2026-05-01 11:11 | 34.81196 | -116.50957 | 12632 ft | 399 kts | 240° |
| 2026-05-01 11:12 | 34.79745 | -116.53829 | 12251 ft | 396 kts | 240° |
| 2026-05-01 11:12 | 34.78305 | -116.56678 | 11876 ft | 394 kts | 240° |
| 2026-05-01 11:12 | 34.76871 | -116.59509 | 11497 ft | 392 kts | 240° |
| 2026-05-01 11:12 | 34.75444 | -116.62327 | 11143 ft | 390 kts | 240° |
| 2026-05-01 11:13 | 34.74021 | -116.65133 | 10781 ft | 389 kts | 240° |
| 2026-05-01 11:13 | 34.72607 | -116.67921 | 10432 ft | 387 kts | 240° |
| 2026-05-01 11:13 | 34.71193 | -116.70705 | 10180 ft | 387 kts | 240° |
| 2026-05-01 11:13 | 34.69781 | -116.73485 | 9946 ft | 387 kts | 239° |
| 2026-05-01 11:14 | 34.68369 | -116.76262 | 9701 ft | 385 kts | 239° |
| 2026-05-01 11:14 | 34.67432 | -116.78103 | 9523 ft | 385 kts | 239° |
| 2026-05-01 11:14 | 34.65567 | -116.81767 | 9173 ft | 383 kts | 239° |
| 2026-05-01 11:14 | 34.64618 | -116.83627 | 9000 ft | 382 kts | 240° |
| 2026-05-01 11:15 | 34.63237 | -116.86336 | 8741 ft | 381 kts | 239° |
| 2026-05-01 11:15 | 34.61842 | -116.89070 | 8553 ft | 379 kts | 239° |
| 2026-05-01 11:15 | 34.60455 | -116.91787 | 8403 ft | 378 kts | 239° |
| 2026-05-01 11:15 | 34.59070 | -116.94497 | 8289 ft | 377 kts | 239° |
| 2026-05-01 11:16 | 34.57689 | -116.97196 | 8173 ft | 376 kts | 239° |
| 2026-05-01 11:16 | 34.56309 | -116.99891 | 7961 ft | 375 kts | 239° |
| 2026-05-01 11:16 | 34.54932 | -117.02578 | 7723 ft | 374 kts | 239° |
| 2026-05-01 11:16 | 34.53564 | -117.05248 | 7476 ft | 372 kts | 239° |
| 2026-05-01 11:17 | 34.52220 | -117.07866 | 7237 ft | 370 kts | 239° |
| 2026-05-01 11:17 | 34.50864 | -117.10509 | 6997 ft | 368 kts | 239° |
| 2026-05-01 11:17 | 34.49512 | -117.13138 | 6778 ft | 367 kts | 239° |
| 2026-05-01 11:17 | 34.48167 | -117.15754 | 6535 ft | 365 kts | 239° |
| 2026-05-01 11:18 | 34.46824 | -117.18362 | 6292 ft | 364 kts | 239° |
| 2026-05-01 11:18 | 34.45485 | -117.20962 | 6096 ft | 362 kts | 239° |
| 2026-05-01 11:18 | 34.44153 | -117.23545 | 5815 ft | 361 kts | 239° |
| 2026-05-01 11:18 | 34.42828 | -117.26116 | 5576 ft | 359 kts | 239° |
| 2026-05-01 11:19 | 34.41505 | -117.28679 | 5448 ft | 358 kts | 239° |
| 2026-05-01 11:19 | 34.40183 | -117.31240 | 5325 ft | 357 kts | 239° |
| 2026-05-01 11:19 | 34.38883 | -117.33754 | 5218 ft | 356 kts | 239° |
| 2026-05-01 11:19 | 34.37568 | -117.36296 | 5099 ft | 356 kts | 239° |
| 2026-05-01 11:20 | 34.36257 | -117.38830 | 4975 ft | 355 kts | 239° |
| 2026-05-01 11:20 | 34.34945 | -117.41362 | 4853 ft | 353 kts | 239° |
| 2026-05-01 11:20 | 34.33641 | -117.43877 | 4862 ft | 352 kts | 239° |
| 2026-05-01 11:20 | 34.32339 | -117.46391 | 5217 ft | 353 kts | 239° |
| 2026-05-01 11:21 | 34.31033 | -117.48906 | 5944 ft | 353 kts | 238° |
| 2026-05-01 11:21 | 34.29715 | -117.51440 | 6641 ft | 357 kts | 239° |
| 2026-05-01 11:21 | 34.28398 | -117.53974 | 7160 ft | 363 kts | 239° |
| 2026-05-01 11:21 | 34.27043 | -117.56579 | 7385 ft | 367 kts | 239° |
| 2026-05-01 11:22 | 34.25690 | -117.59090 | 8219 ft | 315 kts | 232° |
| 2026-05-01 11:22 | 34.24313 | -117.61114 | 9960 ft | 310 kts | 231° |
| 2026-05-01 11:22 | 34.22989 | -117.63183 | 10643 ft | 320 kts | 238° |
| 2026-05-01 11:22 | 34.21870 | -117.65555 | 10664 ft | 327 kts | 243° |
| 2026-05-01 11:23 | 34.20789 | -117.68007 | 10241 ft | 337 kts | 242° |
| 2026-05-01 11:23 | 34.19572 | -117.70605 | 10048 ft | 370 kts | 240° |
| 2026-05-01 11:23 | 34.18234 | -117.73316 | 9930 ft | 380 kts | 239° |
| 2026-05-01 11:23 | 34.16855 | -117.76027 | 9719 ft | 386 kts | 238° |
| 2026-05-01 11:24 | 34.15438 | -117.78771 | 9459 ft | 381 kts | 238° |
| 2026-05-01 11:24 | 34.14058 | -117.81422 | 9120 ft | 367 kts | 238° |
| 2026-05-01 11:24 | 34.11389 | -117.86527 | 8154 ft | 353 kts | 238° |
| 2026-05-01 11:25 | 34.10083 | -117.89018 | 7653 ft | 348 kts | 238° |
| 2026-05-01 11:25 | 34.07487 | -117.93963 | 6119 ft | 353 kts | 238° |
| 2026-05-01 11:25 | 34.06165 | -117.96479 | 5254 ft | 356 kts | 238° |
| 2026-05-01 11:26 | 34.04838 | -117.99002 | 4528 ft | 355 kts | 238° |
| 2026-05-01 11:26 | 34.02306 | -118.03804 | 3996 ft | 310 kts | 238° |
| 2026-05-01 11:26 | 34.01210 | -118.05882 | 3980 ft | 278 kts | 238° |
| 2026-05-01 11:27 | 34.00220 | -118.07754 | 3970 ft | 251 kts | 239° |
| 2026-05-01 11:27 | 33.99324 | -118.09450 | 3997 ft | 230 kts | 239° |
| 2026-05-01 11:27 | 33.98522 | -118.11035 | 3982 ft | 213 kts | 244° |
| 2026-05-01 11:27 | 33.98047 | -118.12613 | 3983 ft | 195 kts | 259° |
| 2026-05-01 11:28 | 33.97852 | -118.14152 | 3976 ft | 177 kts | 265° |
| 2026-05-01 11:28 | 33.97713 | -118.15588 | 3983 ft | 167 kts | 265° |
| 2026-05-01 11:28 | 33.97582 | -118.16917 | 3938 ft | 155 kts | 265° |
| 2026-05-01 11:29 | 33.97324 | -118.19466 | 3549 ft | 153 kts | 264° |
| 2026-05-01 11:29 | 33.97193 | -118.20740 | 3324 ft | 153 kts | 264° |
| 2026-05-01 11:29 | 33.96934 | -118.23279 | 2903 ft | 152 kts | 263° |
| 2026-05-01 11:30 | 33.96806 | -118.24539 | 2705 ft | 151 kts | 263° |
| 2026-05-01 11:30 | 33.96679 | -118.25796 | 2453 ft | 151 kts | 262° |
| 2026-05-01 11:30 | 33.96567 | -118.27047 | 2347 ft | 150 kts | 263° |
| 2026-05-01 11:30 | 33.96474 | -118.28282 | 2219 ft | 151 kts | 264° |
| 2026-05-01 11:31 | 33.96360 | -118.29539 | 1967 ft | 151 kts | 262° |
| 2026-05-01 11:31 | 33.96209 | -118.30780 | 1708 ft | 148 kts | 261° |
| 2026-05-01 11:31 | 33.96063 | -118.32009 | 1477 ft | 148 kts | 261° |
| 2026-05-01 11:31 | 33.95933 | -118.33245 | 1252 ft | 148 kts | 263° |
| 2026-05-01 11:32 | 33.95826 | -118.34473 | 1091 ft | 147 kts | 262° |
| 2026-05-01 11:32 | 33.95694 | -118.35703 | 844 ft | 148 kts | 261° |
| 2026-05-01 11:32 | 33.95558 | -118.36924 | 662 ft | 147 kts | 261° |
| 2026-05-01 11:32 | 33.95430 | -118.38149 | 477 ft | 147 kts | 262° |
| 2026-05-01 11:33 | 33.95305 | -118.39366 | 265 ft | 146 kts | 262° |
| 2026-05-01 11:33 | 33.95178 | -118.40534 | 141 ft | 136 kts | 262° |
| 2026-05-01 11:33 | 33.95075 | -118.41507 | 127 ft | 91 kts | 264° |
| 2026-05-01 11:33 | 33.95021 | -118.42033 | 126 ft | 46 kts | 263° |
| 2026-05-01 11:34 | 33.94985 | -118.42373 | 128 ft | 40 kts | 262° |
| 2026-05-01 11:34 | 33.94877 | -118.42647 | 124 ft | 24 kts | 227° |
| 2026-05-01 11:34 | 33.94803 | -118.42723 | 124 ft | 14 kts | 213° |
| 2026-05-01 11:34 | 33.94711 | -118.42771 | 127 ft | 15 kts | 194° |
| 2026-05-01 11:35 | 33.94608 | -118.42780 | 127 ft | 15 kts | 169° |
| 2026-05-01 11:35 | 33.94569 | -118.42771 | 126 ft | 1 kts | 171° |
| 2026-05-01 11:35 | 33.94557 | -118.42771 | 125 ft | 2 kts | 184° |
| 2026-05-01 11:35 | 33.94539 | -118.42792 | 124 ft | 7 kts | 240° |
| 2026-05-01 11:36 | 33.94531 | -118.42856 | 125 ft | 4 kts | 263° |
| 2026-05-01 11:36 | 33.94529 | -118.42878 | 125 ft | 1 kts | 262° |
| 2026-05-01 11:36 | 33.94527 | -118.42892 | 126 ft | 2 kts | 262° |
| 2026-05-01 11:36 | 33.94527 | -118.42894 | 126 ft | 0 kts | 262° |